sensor_id;sensor_type;location;lat;lon;timestamp;pressure;altitude;pressure_sealevel;temperature;humidity
10840;BME280;5473;42.706;23.328;2022-09-09T00:00:55;29950.06;;;-142.93;79.45
10840;BME280;5473;42.706;23.328;2022-09-09T00:03:27;29459.72;;;-142.93;79.81
10840;BME280;5473;42.706;23.328;2022-09-09T00:06:06;29237.41;;;-142.93;79.96
10840;BME280;5473;42.706;23.328;2022-09-09T00:08:42;28929.75;;;-142.93;80.25
10840;BME280;5473;42.706;23.328;2022-09-09T00:11:12;28469.31;;;-142.93;80.66
10840;BME280;5473;42.706;23.328;2022-09-09T00:13:47;28258.97;;;-142.93;80.97
10840;BME280;5473;42.706;23.328;2022-09-09T00:16:18;28185.56;;;-142.93;81.20
10840;BME280;5473;42.706;23.328;2022-09-09T00:18:57;28221.28;;;-142.93;81.35
10840;BME280;5473;42.706;23.328;2022-09-09T00:21:31;28417.72;;;-142.93;81.62
10840;BME280;5473;42.706;23.328;2022-09-09T00:24:04;30992.53;;;-142.93;82.54
10840;BME280;5473;42.706;23.328;2022-09-09T00:26:38;32873.78;;;-142.93;82.99
10840;BME280;5473;42.706;23.328;2022-09-09T00:29:15;37445.19;;;-142.93;83.57
10840;BME280;5473;42.706;23.328;2022-09-09T00:31:45;39443.56;;;-142.93;83.95
10840;BME280;5473;42.706;23.328;2022-09-09T00:34:13;42369.59;;;-142.93;84.27
10840;BME280;5473;42.706;23.328;2022-09-09T00:36:42;43812.63;;;-142.93;84.51
10840;BME280;5473;42.706;23.328;2022-09-09T00:39:23;46415.25;;;-142.93;84.86
10840;BME280;5473;42.706;23.328;2022-09-09T00:42:02;48458.84;;;-142.93;85.08
10840;BME280;5473;42.706;23.328;2022-09-09T00:44:37;50503.72;;;-142.93;85.48
10840;BME280;5473;42.706;23.328;2022-09-09T00:47:15;52549.81;;;-142.93;85.80
10840;BME280;5473;42.706;23.328;2022-09-09T00:49:56;54853.13;;;-142.93;86.15
10840;BME280;5473;42.706;23.328;2022-09-09T00:52:34;56389.56;;;-142.93;86.39
10840;BME280;5473;42.706;23.328;2022-09-09T00:55:09;58182.94;;;-142.93;86.74
10840;BME280;5473;42.706;23.328;2022-09-09T00:57:40;60490.09;;;-142.93;87.26
10840;BME280;5473;42.706;23.328;2022-09-09T01:00:21;61772.53;;;-142.93;87.53
10840;BME280;5473;42.706;23.328;2022-09-09T01:02:59;62285.66;;;-142.93;87.64
10840;BME280;5473;42.706;23.328;2022-09-09T01:05:34;64082.13;;;-142.93;88.10
10840;BME280;5473;42.706;23.328;2022-09-09T01:08:09;65879.56;;;-142.93;88.51
10840;BME280;5473;42.706;23.328;2022-09-09T01:10:44;67164.03;;;-142.93;88.91
10840;BME280;5473;42.706;23.328;2022-09-09T01:13:19;69477.28;;;-142.93;89.49
10840;BME280;5473;42.706;23.328;2022-09-09T01:15:48;71277.56;;;-142.93;89.92
10840;BME280;5473;42.706;23.328;2022-09-09T01:18:20;72049.41;;;-142.93;90.47
10840;BME280;5473;42.706;23.328;2022-09-09T01:20:55;73336.19;;;-142.93;90.74
10840;BME280;5473;42.706;23.328;2022-09-09T01:23:41;73851.06;;;-142.93;91.09
10840;BME280;5473;42.706;23.328;2022-09-09T01:26:22;75138.50;;;-142.93;91.52
10840;BME280;5473;42.706;23.328;2022-09-09T01:28:52;76168.84;;;-142.93;92.16
10840;BME280;5473;42.706;23.328;2022-09-09T01:31:21;76426.47;;;-142.93;92.35
10840;BME280;5473;42.706;23.328;2022-09-09T01:33:50;76426.47;;;-142.93;92.58
10840;BME280;5473;42.706;23.328;2022-09-09T01:36:26;76426.47;;;-142.93;92.56
10840;BME280;5473;42.706;23.328;2022-09-09T01:38:56;76684.09;;;-142.93;92.81
10840;BME280;5473;42.706;23.328;2022-09-09T01:41:25;77457.16;;;-142.93;93.14
10840;BME280;5473;42.706;23.328;2022-09-09T01:43:53;77714.88;;;-142.93;93.34
10840;BME280;5473;42.706;23.328;2022-09-09T01:46:21;77972.63;;;-142.93;93.78
10840;BME280;5473;42.706;23.328;2022-09-09T01:48:50;77972.63;;;-142.93;94.10
10840;BME280;5473;42.706;23.328;2022-09-09T01:51:17;78230.41;;;-142.93;94.30
10840;BME280;5473;42.706;23.328;2022-09-09T01:53:45;78488.19;;;-142.93;94.51
10840;BME280;5473;42.706;23.328;2022-09-09T01:56:21;78488.19;;;-142.93;94.65
10840;BME280;5473;42.706;23.328;2022-09-09T01:59:01;78745.97;;;-142.93;94.94
10840;BME280;5473;42.706;23.328;2022-09-09T02:01:39;78745.97;;;-142.93;95.23
10840;BME280;5473;42.706;23.328;2022-09-09T02:04:17;78745.97;;;-142.93;95.52
10840;BME280;5473;42.706;23.328;2022-09-09T02:06:48;78745.97;;;-142.93;95.72
10840;BME280;5473;42.706;23.328;2022-09-09T02:09:23;78745.97;;;-142.93;96.14
10840;BME280;5473;42.706;23.328;2022-09-09T02:11:55;78488.19;;;-142.93;96.64
10840;BME280;5473;42.706;23.328;2022-09-09T02:14:30;78488.19;;;-142.93;97.58
10840;BME280;5473;42.706;23.328;2022-09-09T02:17:01;76684.09;;;-142.93;98.59
10840;BME280;5473;42.706;23.328;2022-09-09T02:19:32;73336.19;;;-142.93;99.52
10840;BME280;5473;42.706;23.328;2022-09-09T02:22:01;70777.19;;;-142.93;100.00
10840;BME280;5473;42.706;23.328;2022-09-09T02:24:31;67677.97;;;-142.93;100.00
10840;BME280;5473;42.706;23.328;2022-09-09T02:27:02;64459.19;;;-142.93;100.00
10840;BME280;5473;42.706;23.328;2022-09-09T02:29:34;56259.50;;;-142.93;100.00
10840;BME280;5473;42.706;23.328;2022-09-09T02:32:06;43866.44;;;-142.93;100.00
10840;BME280;5473;42.706;23.328;2022-09-09T02:34:36;36474.31;;;-142.93;100.00
10840;BME280;5473;42.706;23.328;2022-09-09T02:37:07;22499.44;;;-142.93;100.00
10840;BME280;5473;42.706;23.328;2022-09-09T02:39:34;10351.00;;;-142.93;100.00
10840;BME280;5473;42.706;23.328;2022-09-09T02:42:01;9.50;;;-142.93;100.00
10840;BME280;5473;42.706;23.328;2022-09-09T02:44:29;-5274.78;;;-142.93;100.00
10840;BME280;5473;42.706;23.328;2022-09-09T02:47:05;-9295.19;;;-142.93;100.00
10840;BME280;5473;42.706;23.328;2022-09-09T02:49:39;-10299.50;;;-142.93;100.00
10840;BME280;5473;42.706;23.328;2022-09-09T02:52:08;-10299.50;;;-142.93;100.00
10840;BME280;5473;42.706;23.328;2022-09-09T02:54:39;-10299.50;;;-142.93;100.00
10840;BME280;5473;42.706;23.328;2022-09-09T02:57:09;-10550.53;;;-142.93;100.00
10840;BME280;5473;42.706;23.328;2022-09-09T02:59:37;-10801.56;;;-142.93;100.00
10840;BME280;5473;42.706;23.328;2022-09-09T03:02:06;-10801.56;;;-142.93;100.00
10840;BME280;5473;42.706;23.328;2022-09-09T03:04:33;-10801.56;;;-142.93;100.00
10840;BME280;5473;42.706;23.328;2022-09-09T03:06:59;-10801.56;;;-142.93;100.00
10840;BME280;5473;42.706;23.328;2022-09-09T03:09:26;-10801.56;;;-142.93;100.00
10840;BME280;5473;42.706;23.328;2022-09-09T03:11:53;-11052.53;;;-142.93;100.00
10840;BME280;5473;42.706;23.328;2022-09-09T03:14:20;-11052.53;;;-142.93;100.00
10840;BME280;5473;42.706;23.328;2022-09-09T03:16:50;-11052.53;;;-142.93;100.00
10840;BME280;5473;42.706;23.328;2022-09-09T03:19:18;-11303.53;;;-142.93;100.00
10840;BME280;5473;42.706;23.328;2022-09-09T03:21:45;-11303.53;;;-142.93;100.00
10840;BME280;5473;42.706;23.328;2022-09-09T03:24:12;-11303.53;;;-142.93;100.00
10840;BME280;5473;42.706;23.328;2022-09-09T03:26:39;-11052.53;;;-142.93;100.00
10840;BME280;5473;42.706;23.328;2022-09-09T03:29:06;-11052.53;;;-142.93;100.00
10840;BME280;5473;42.706;23.328;2022-09-09T03:31:33;-11052.53;;;-142.93;100.00
10840;BME280;5473;42.706;23.328;2022-09-09T03:34:02;-11052.53;;;-142.93;100.00
10840;BME280;5473;42.706;23.328;2022-09-09T03:36:32;-10801.56;;;-142.93;100.00
10840;BME280;5473;42.706;23.328;2022-09-09T03:38:59;-10801.56;;;-142.93;100.00
10840;BME280;5473;42.706;23.328;2022-09-09T03:41:26;-11052.53;;;-142.93;100.00
10840;BME280;5473;42.706;23.328;2022-09-09T03:43:53;-11052.53;;;-142.93;100.00
10840;BME280;5473;42.706;23.328;2022-09-09T03:46:21;-11303.53;;;-142.93;100.00
10840;BME280;5473;42.706;23.328;2022-09-09T03:48:48;-11052.53;;;-142.93;100.00
10840;BME280;5473;42.706;23.328;2022-09-09T03:51:15;-11303.53;;;-142.93;100.00
10840;BME280;5473;42.706;23.328;2022-09-09T03:53:43;-11303.53;;;-142.93;100.00
10840;BME280;5473;42.706;23.328;2022-09-09T03:56:10;-11052.53;;;-142.93;100.00
10840;BME280;5473;42.706;23.328;2022-09-09T03:58:37;-11052.53;;;-142.93;100.00
10840;BME280;5473;42.706;23.328;2022-09-09T04:01:06;-10801.56;;;-142.93;100.00
10840;BME280;5473;42.706;23.328;2022-09-09T04:03:33;-10801.56;;;-142.93;100.00
10840;BME280;5473;42.706;23.328;2022-09-09T04:06:04;-10801.56;;;-142.93;100.00
10840;BME280;5473;42.706;23.328;2022-09-09T04:08:32;-10801.56;;;-142.93;100.00
10840;BME280;5473;42.706;23.328;2022-09-09T04:11:01;-10801.56;;;-142.93;100.00
10840;BME280;5473;42.706;23.328;2022-09-09T04:13:30;-10801.56;;;-142.93;100.00
10840;BME280;5473;42.706;23.328;2022-09-09T04:15:59;-10550.53;;;-142.93;100.00
10840;BME280;5473;42.706;23.328;2022-09-09T04:18:26;-10550.53;;;-142.93;100.00
10840;BME280;5473;42.706;23.328;2022-09-09T04:20:55;-10801.56;;;-142.93;100.00
10840;BME280;5473;42.706;23.328;2022-09-09T04:23:23;-10801.56;;;-142.93;100.00
10840;BME280;5473;42.706;23.328;2022-09-09T04:25:52;-10550.53;;;-142.93;100.00
10840;BME280;5473;42.706;23.328;2022-09-09T04:28:22;-10550.53;;;-142.93;100.00
10840;BME280;5473;42.706;23.328;2022-09-09T04:30:49;-10550.53;;;-142.93;100.00
10840;BME280;5473;42.706;23.328;2022-09-09T04:33:18;-10299.50;;;-142.93;100.00
10840;BME280;5473;42.706;23.328;2022-09-09T04:35:46;-10299.50;;;-142.93;100.00
10840;BME280;5473;42.706;23.328;2022-09-09T04:38:13;-9797.38;;;-142.93;100.00
10840;BME280;5473;42.706;23.328;2022-09-09T04:40:42;-9295.19;;;-142.93;100.00
10840;BME280;5473;42.706;23.328;2022-09-09T04:43:09;-9044.06;;;-142.93;100.00
10840;BME280;5473;42.706;23.328;2022-09-09T04:45:37;-8541.75;;;-142.93;100.00
10840;BME280;5473;42.706;23.328;2022-09-09T04:48:05;-7788.13;;;-142.93;100.00
10840;BME280;5473;42.706;23.328;2022-09-09T04:50:32;-6531.69;;;-142.93;100.00
10840;BME280;5473;42.706;23.328;2022-09-09T04:53:00;-2431.22;;;-142.93;100.00
10840;BME280;5473;42.706;23.328;2022-09-09T04:55:27;4971.25;;;-142.93;100.00
10840;BME280;5473;42.706;23.328;2022-09-09T04:57:54;15937.22;;;-142.93;98.62
10840;BME280;5473;42.706;23.328;2022-09-09T05:00:20;23452.41;;;-142.93;96.70
10840;BME280;5473;42.706;23.328;2022-09-09T05:02:49;36166.00;;;-142.93;94.84
10840;BME280;5473;42.706;23.328;2022-09-09T05:05:16;43533.53;;;-142.93;93.41
10840;BME280;5473;42.706;23.328;2022-09-09T05:07:44;47387.00;;;-142.93;92.73
10840;BME280;5473;42.706;23.328;2022-09-09T05:10:11;50248.03;;;-142.93;92.15
10840;BME280;5473;42.706;23.328;2022-09-09T05:12:38;49481.13;;;-142.93;91.08
10840;BME280;5473;42.706;23.328;2022-09-09T05:15:06;49992.38;;;-142.93;90.43
10840;BME280;5473;42.706;23.328;2022-09-09T05:17:33;51015.13;;;-142.93;90.21
10840;BME280;5473;42.706;23.328;2022-09-09T05:20:02;48714.41;;;-142.93;89.35
10840;BME280;5473;42.706;23.328;2022-09-09T05:22:29;46670.63;;;-142.93;88.50
10840;BME280;5473;42.706;23.328;2022-09-09T05:24:56;46159.88;;;-142.93;88.03
10840;BME280;5473;42.706;23.328;2022-09-09T05:27:23;49481.13;;;-142.93;88.15
10840;BME280;5473;42.706;23.328;2022-09-09T05:29:50;47436.91;;;-142.93;87.73
10840;BME280;5473;42.706;23.328;2022-09-09T05:32:17;40538.78;;;-142.93;86.68
10840;BME280;5473;42.706;23.328;2022-09-09T05:34:44;29999.69;;;-142.93;85.01
10840;BME280;5473;42.706;23.328;2022-09-09T05:37:13;21144.78;;;-142.93;82.42
10840;BME280;5473;42.706;23.328;2022-09-09T05:39:40;24859.53;;;-142.93;80.55
10840;BME280;5473;42.706;23.328;2022-09-09T05:42:07;31093.81;;;-142.93;77.83
10840;BME280;5473;42.706;23.328;2022-09-09T05:44:34;34634.78;;;-142.93;74.76
10840;BME280;5473;42.706;23.328;2022-09-09T05:47:00;35712.53;;;-142.93;72.52
10840;BME280;5473;42.706;23.328;2022-09-09T05:49:27;36315.19;;;-142.93;69.64
10840;BME280;5473;42.706;23.328;2022-09-09T05:51:54;36563.84;;;-142.93;66.28
10840;BME280;5473;42.706;23.328;2022-09-09T05:54:22;36724.97;;;-142.93;62.44
10840;BME280;5473;42.706;23.328;2022-09-09T05:56:51;36732.94;;;-142.93;59.67
10840;BME280;5473;42.706;23.328;2022-09-09T05:59:19;36756.81;;;-142.93;57.42
10840;BME280;5473;42.706;23.328;2022-09-09T06:01:46;36804.56;;;-142.93;54.99
10840;BME280;5473;42.706;23.328;2022-09-09T06:04:13;36836.38;;;-142.93;53.81
10840;BME280;5473;42.706;23.328;2022-09-09T06:06:39;36804.56;;;-142.93;52.30
10840;BME280;5473;42.706;23.328;2022-09-09T06:09:08;36812.50;;;-142.93;49.73
10840;BME280;5473;42.706;23.328;2022-09-09T06:11:39;36872.19;;;-142.93;49.06
10840;BME280;5473;42.706;23.328;2022-09-09T06:14:07;36844.34;;;-142.93;48.80
10840;BME280;5473;42.706;23.328;2022-09-09T06:16:34;36864.22;;;-142.93;48.29
10840;BME280;5473;42.706;23.328;2022-09-09T06:19:03;36762.78;;;-142.93;47.53
10840;BME280;5473;42.706;23.328;2022-09-09T06:21:31;36836.38;;;-142.93;46.38
10840;BME280;5473;42.706;23.328;2022-09-09T06:24:02;36784.66;;;-142.93;46.52
10840;BME280;5473;42.706;23.328;2022-09-09T06:26:31;36707.06;;;-142.93;44.79
10840;BME280;5473;42.706;23.328;2022-09-09T06:29:00;36806.53;;;-142.93;44.99
10840;BME280;5473;42.706;23.328;2022-09-09T06:31:30;36935.84;;;-142.93;45.77
10840;BME280;5473;42.706;23.328;2022-09-09T06:33:58;36896.06;;;-142.93;45.07
10840;BME280;5473;42.706;23.328;2022-09-09T06:36:27;36874.19;;;-142.93;43.77
10840;BME280;5473;42.706;23.328;2022-09-09T06:38:54;36910.00;;;-142.93;43.75
10840;BME280;5473;42.706;23.328;2022-09-09T06:41:23;36985.59;;;-142.93;43.75
10840;BME280;5473;42.706;23.328;2022-09-09T06:43:51;36951.78;;;-142.93;43.86
10840;BME280;5473;42.706;23.328;2022-09-09T06:46:21;36919.94;;;-142.93;44.28
10840;BME280;5473;42.706;23.328;2022-09-09T06:48:48;36884.13;;;-142.93;42.98
10840;BME280;5473;42.706;23.328;2022-09-09T06:51:16;36915.97;;;-142.93;43.20
10840;BME280;5473;42.706;23.328;2022-09-09T06:53:45;36913.97;;;-142.93;43.52
10840;BME280;5473;42.706;23.328;2022-09-09T06:56:19;36915.97;;;-142.93;42.85
10840;BME280;5473;42.706;23.328;2022-09-09T06:58:47;36844.34;;;-142.93;42.25
10840;BME280;5473;42.706;23.328;2022-09-09T07:01:15;36730.94;;;-142.93;41.47
10840;BME280;5473;42.706;23.328;2022-09-09T07:03:47;36661.31;;;-142.93;40.75
10840;BME280;5473;42.706;23.328;2022-09-09T07:06:16;36625.50;;;-142.93;40.36
10840;BME280;5473;42.706;23.328;2022-09-09T07:08:48;36697.13;;;-142.93;40.56
10840;BME280;5473;42.706;23.328;2022-09-09T07:11:15;36673.25;;;-142.93;40.17
10840;BME280;5473;42.706;23.328;2022-09-09T07:13:42;36691.16;;;-142.93;40.21
10840;BME280;5473;42.706;23.328;2022-09-09T07:16:09;36551.91;;;-142.93;39.26
10840;BME280;5473;42.706;23.328;2022-09-09T07:18:37;36448.47;;;-142.93;38.46
10840;BME280;5473;42.706;23.328;2022-09-09T07:21:05;36484.28;;;-142.93;38.65
10840;BME280;5473;42.706;23.328;2022-09-09T07:23:33;36358.94;;;-142.93;37.72
10840;BME280;5473;42.706;23.328;2022-09-09T07:26:01;36422.59;;;-142.93;37.95
10840;BME280;5473;42.706;23.328;2022-09-09T07:28:28;36267.44;;;-142.93;37.86
10840;BME280;5473;42.706;23.328;2022-09-09T07:30:57;36323.16;;;-142.93;37.37
10840;BME280;5473;42.706;23.328;2022-09-09T07:33:25;36235.63;;;-142.93;37.00
10840;BME280;5473;42.706;23.328;2022-09-09T07:35:52;36321.16;;;-142.93;37.45
10840;BME280;5473;42.706;23.328;2022-09-09T07:38:21;36303.25;;;-142.93;37.00
10840;BME280;5473;42.706;23.328;2022-09-09T07:40:48;36327.13;;;-142.93;37.29
10840;BME280;5473;42.706;23.328;2022-09-09T07:43:15;36239.59;;;-142.93;36.65
10840;BME280;5473;42.706;23.328;2022-09-09T07:45:42;36128.22;;;-142.93;36.18
10840;BME280;5473;42.706;23.328;2022-09-09T07:48:09;36002.91;;;-142.93;35.96
10840;BME280;5473;42.706;23.328;2022-09-09T07:50:36;35863.69;;;-142.93;34.86
10840;BME280;5473;42.706;23.328;2022-09-09T07:53:03;35819.94;;;-142.93;34.89
10840;BME280;5473;42.706;23.328;2022-09-09T07:55:32;35404.28;;;-142.93;33.49
10840;BME280;5473;42.706;23.328;2022-09-09T07:57:59;35217.38;;;-142.93;32.83
10840;BME280;5473;42.706;23.328;2022-09-09T08:00:26;35239.25;;;-142.93;32.54
10840;BME280;5473;42.706;23.328;2022-09-09T08:02:53;35352.59;;;-142.93;32.47
10840;BME280;5473;42.706;23.328;2022-09-09T08:05:20;35215.38;;;-142.93;31.75
10840;BME280;5473;42.706;23.328;2022-09-09T08:07:47;35271.06;;;-142.93;32.09
10840;BME280;5473;42.706;23.328;2022-09-09T08:10:14;35539.53;;;-142.93;32.69
10840;BME280;5473;42.706;23.328;2022-09-09T08:12:42;35738.38;;;-142.93;33.19
10840;BME280;5473;42.706;23.328;2022-09-09T08:15:09;35601.16;;;-142.93;32.99
10840;BME280;5473;42.706;23.328;2022-09-09T08:17:36;35676.75;;;-142.93;33.36
10840;BME280;5473;42.706;23.328;2022-09-09T08:20:04;35205.44;;;-142.93;31.98
10840;BME280;5473;42.706;23.328;2022-09-09T08:22:32;35179.59;;;-142.93;31.72
10840;BME280;5473;42.706;23.328;2022-09-09T08:24:59;34958.88;;;-142.93;30.99
10840;BME280;5473;42.706;23.328;2022-09-09T08:27:27;34797.81;;;-142.93;30.63
10840;BME280;5473;42.706;23.328;2022-09-09T08:29:55;34905.19;;;-142.93;30.52
10840;BME280;5473;42.706;23.328;2022-09-09T08:32:22;35050.34;;;-142.93;30.68
10840;BME280;5473;42.706;23.328;2022-09-09T08:34:49;35420.19;;;-142.93;31.51
10840;BME280;5473;42.706;23.328;2022-09-09T08:37:16;35690.66;;;-142.93;32.19
10840;BME280;5473;42.706;23.328;2022-09-09T08:39:44;35724.47;;;-142.93;32.72
10840;BME280;5473;42.706;23.328;2022-09-09T08:42:26;35740.38;;;-142.93;32.90
10840;BME280;5473;42.706;23.328;2022-09-09T08:45:20;35907.44;;;-142.93;33.54
10840;BME280;5473;42.706;23.328;2022-09-09T08:48:01;36040.69;;;-142.93;33.95
10840;BME280;5473;42.706;23.328;2022-09-09T08:50:34;36044.69;;;-142.93;34.34
10840;BME280;5473;42.706;23.328;2022-09-09T08:53:10;35998.94;;;-142.93;34.30
10840;BME280;5473;42.706;23.328;2022-09-09T08:55:41;35615.09;;;-142.93;33.00
10840;BME280;5473;42.706;23.328;2022-09-09T08:58:14;35694.63;;;-142.93;33.27
10840;BME280;5473;42.706;23.328;2022-09-09T09:00:55;35638.94;;;-142.93;33.07
10840;BME280;5473;42.706;23.328;2022-09-09T09:03:33;35497.75;;;-142.93;32.85
10840;BME280;5473;42.706;23.328;2022-09-09T09:06:06;35139.81;;;-142.93;31.70
10840;BME280;5473;42.706;23.328;2022-09-09T09:08:39;35243.22;;;-142.93;32.00
10840;BME280;5473;42.706;23.328;2022-09-09T09:11:09;35372.47;;;-142.93;32.13
10840;BME280;5473;42.706;23.328;2022-09-09T09:13:40;34988.69;;;-142.93;31.32
10840;BME280;5473;42.706;23.328;2022-09-09T09:16:19;34831.63;;;-142.93;30.97
10840;BME280;5473;42.706;23.328;2022-09-09T09:18:49;34937.00;;;-142.93;31.17
10840;BME280;5473;42.706;23.328;2022-09-09T09:21:20;35261.13;;;-142.93;31.59
10840;BME280;5473;42.706;23.328;2022-09-09T09:23:54;35551.44;;;-142.93;32.41
10840;BME280;5473;42.706;23.328;2022-09-09T09:26:23;35851.75;;;-142.93;33.26
10840;BME280;5473;42.706;23.328;2022-09-09T09:28:55;36076.50;;;-142.93;34.57
10840;BME280;5473;42.706;23.328;2022-09-09T09:31:24;36158.06;;;-142.93;34.97
10840;BME280;5473;42.706;23.328;2022-09-09T09:33:53;36052.63;;;-142.93;34.93
10840;BME280;5473;42.706;23.328;2022-09-09T09:36:33;36116.28;;;-142.93;35.16
10840;BME280;5473;42.706;23.328;2022-09-09T09:39:01;36195.84;;;-142.93;35.13
10840;BME280;5473;42.706;23.328;2022-09-09T09:41:32;36166.00;;;-142.93;35.48
10840;BME280;5473;42.706;23.328;2022-09-09T09:44:01;35841.81;;;-142.93;34.55
10840;BME280;5473;42.706;23.328;2022-09-09T09:46:30;35770.22;;;-142.93;34.20
10840;BME280;5473;42.706;23.328;2022-09-09T09:48:58;35680.72;;;-142.93;33.51
10840;BME280;5473;42.706;23.328;2022-09-09T09:51:27;35674.75;;;-142.93;33.30
10840;BME280;5473;42.706;23.328;2022-09-09T09:54:17;35726.47;;;-142.93;33.55
10840;BME280;5473;42.706;23.328;2022-09-09T09:56:46;35748.34;;;-142.93;33.60
10840;BME280;5473;42.706;23.328;2022-09-09T09:59:22;35833.84;;;-142.93;33.98
10840;BME280;5473;42.706;23.328;2022-09-09T10:01:50;36098.38;;;-142.93;34.66
10840;BME280;5473;42.706;23.328;2022-09-09T10:04:19;36193.84;;;-142.93;34.92
10840;BME280;5473;42.706;23.328;2022-09-09T10:06:48;36243.56;;;-142.93;35.40
10840;BME280;5473;42.706;23.328;2022-09-09T10:09:22;36016.84;;;-142.93;34.97
10840;BME280;5473;42.706;23.328;2022-09-09T10:11:57;35979.03;;;-142.93;34.68
10840;BME280;5473;42.706;23.328;2022-09-09T10:14:30;36104.34;;;-142.93;34.86
10840;BME280;5473;42.706;23.328;2022-09-09T10:17:14;36187.88;;;-142.93;35.78
10840;BME280;5473;42.706;23.328;2022-09-09T10:19:57;36215.72;;;-142.93;35.99
10840;BME280;5473;42.706;23.328;2022-09-09T10:22:32;36267.44;;;-142.93;36.19
10840;BME280;5473;42.706;23.328;2022-09-09T10:25:21;36360.94;;;-142.93;36.48
10840;BME280;5473;42.706;23.328;2022-09-09T10:28:16;36462.38;;;-142.93;37.50
10840;BME280;5473;42.706;23.328;2022-09-09T10:30:53;36482.28;;;-142.93;37.26
10840;BME280;5473;42.706;23.328;2022-09-09T10:33:28;36532.00;;;-142.93;37.34
10840;BME280;5473;42.706;23.328;2022-09-09T10:36:07;36510.13;;;-142.93;37.79
10840;BME280;5473;42.706;23.328;2022-09-09T10:38:40;36474.31;;;-142.93;37.78
10840;BME280;5473;42.706;23.328;2022-09-09T10:41:32;36462.38;;;-142.93;38.09
10840;BME280;5473;42.706;23.328;2022-09-09T10:44:18;36490.22;;;-142.93;38.22
10840;BME280;5473;42.706;23.328;2022-09-09T10:47:10;36392.75;;;-142.93;37.80
10840;BME280;5473;42.706;23.328;2022-09-09T10:52:45;36376.84;;;-142.93;38.07
10840;BME280;5473;42.706;23.328;2022-09-09T10:55:17;36374.88;;;-142.93;37.84
10840;BME280;5473;42.706;23.328;2022-09-09T10:57:46;36392.75;;;-142.93;37.86
10840;BME280;5473;42.706;23.328;2022-09-09T11:00:17;36366.91;;;-142.93;37.72
10840;BME280;5473;42.706;23.328;2022-09-09T11:02:45;36335.06;;;-142.93;37.96
10840;BME280;5473;42.706;23.328;2022-09-09T11:05:19;36368.91;;;-142.93;37.71
10840;BME280;5473;42.706;23.328;2022-09-09T11:07:50;36341.03;;;-142.93;37.68
10840;BME280;5473;42.706;23.328;2022-09-09T11:10:25;36410.66;;;-142.93;37.79
10840;BME280;5473;42.706;23.328;2022-09-09T11:13:00;36460.41;;;-142.93;38.31
10840;BME280;5473;42.706;23.328;2022-09-09T11:15:31;36424.59;;;-142.93;38.36
10840;BME280;5473;42.706;23.328;2022-09-09T11:18:04;36484.28;;;-142.93;38.86
10840;BME280;5473;42.706;23.328;2022-09-09T11:20:34;36396.75;;;-142.93;38.64
10840;BME280;5473;42.706;23.328;2022-09-09T11:23:03;36356.97;;;-142.93;38.71
10840;BME280;5473;42.706;23.328;2022-09-09T11:25:33;36227.66;;;-142.93;38.23
10840;BME280;5473;42.706;23.328;2022-09-09T11:28:18;36225.69;;;-142.93;38.00
10840;BME280;5473;42.706;23.328;2022-09-09T11:31:00;36084.47;;;-142.93;37.68
10840;BME280;5473;42.706;23.328;2022-09-09T11:42:24;36104.34;;;-142.93;38.00
10840;BME280;5473;42.706;23.328;2022-09-09T11:44:51;36267.44;;;-142.93;38.81
10840;BME280;5473;42.706;23.328;2022-09-09T11:47:22;36297.28;;;-142.93;39.08
10840;BME280;5473;42.706;23.328;2022-09-09T11:49:54;36235.63;;;-142.93;39.25
10840;BME280;5473;42.706;23.328;2022-09-09T11:52:24;36331.09;;;-142.93;39.58
10840;BME280;5473;42.706;23.328;2022-09-09T11:55:10;36285.34;;;-142.93;39.66
10840;BME280;5473;42.706;23.328;2022-09-09T11:57:38;36164.03;;;-142.93;39.14
10840;BME280;5473;42.706;23.328;2022-09-09T12:00:06;35947.22;;;-142.93;37.98
10840;BME280;5473;42.706;23.328;2022-09-09T12:02:33;35855.72;;;-142.93;37.65
10840;BME280;5473;42.706;23.328;2022-09-09T12:05:04;35607.13;;;-142.93;36.58
10840;BME280;5473;42.706;23.328;2022-09-09T12:07:37;35300.88;;;-142.93;35.53
10840;BME280;5473;42.706;23.328;2022-09-09T12:10:20;35163.69;;;-142.93;35.21
10840;BME280;5473;42.706;23.328;2022-09-09T12:12:49;35050.34;;;-142.93;34.46
10840;BME280;5473;42.706;23.328;2022-09-09T12:15:24;34893.25;;;-142.93;34.06
10840;BME280;5473;42.706;23.328;2022-09-09T12:17:55;34913.16;;;-142.93;34.09
10840;BME280;5473;42.706;23.328;2022-09-09T12:20:25;35092.09;;;-142.93;34.30
10840;BME280;5473;42.706;23.328;2022-09-09T12:23:10;35233.28;;;-142.93;34.51
10840;BME280;5473;42.706;23.328;2022-09-09T12:28:52;35547.47;;;-142.93;35.94
10840;BME280;5473;42.706;23.328;2022-09-09T12:31:25;35334.69;;;-142.93;35.60
10840;BME280;5473;42.706;23.328;2022-09-09T12:33:53;35366.50;;;-142.93;35.40
10840;BME280;5473;42.706;23.328;2022-09-09T12:36:23;35465.94;;;-142.93;35.69
10840;BME280;5473;42.706;23.328;2022-09-09T12:38:53;35698.63;;;-142.93;36.63
10840;BME280;5473;42.706;23.328;2022-09-09T12:41:22;35929.31;;;-142.93;37.64
10840;BME280;5473;42.706;23.328;2022-09-09T12:43:50;36010.88;;;-142.93;38.14
10840;BME280;5473;42.706;23.328;2022-09-09T12:46:24;36138.16;;;-142.93;38.66
10840;BME280;5473;42.706;23.328;2022-09-09T12:48:55;36267.44;;;-142.93;39.36
10840;BME280;5473;42.706;23.328;2022-09-09T12:51:25;36331.09;;;-142.93;39.72
10840;BME280;5473;42.706;23.328;2022-09-09T12:53:55;36319.16;;;-142.93;40.31
10840;BME280;5473;42.706;23.328;2022-09-09T12:56:24;36152.09;;;-142.93;39.61
10840;BME280;5473;42.706;23.328;2022-09-09T12:58:54;36040.69;;;-142.93;38.59
10840;BME280;5473;42.706;23.328;2022-09-09T13:01:24;36000.91;;;-142.93;38.34
10840;BME280;5473;42.706;23.328;2022-09-09T13:03:51;35941.25;;;-142.93;38.48
10840;BME280;5473;42.706;23.328;2022-09-09T13:06:20;35885.56;;;-142.93;38.33
10840;BME280;5473;42.706;23.328;2022-09-09T13:08:48;35977.06;;;-142.93;38.16